createdAt,value
2018-10-04T00:01:59.493Z,10.60
2018-10-04T00:04:29.255Z,10.70
2018-10-04T00:06:59.661Z,10.70
2018-10-04T00:09:29.630Z,10.60
2018-10-04T00:11:59.745Z,10.60
2018-10-04T00:14:29.411Z,10.60
2018-10-04T00:16:59.534Z,10.60
2018-10-04T00:19:29.270Z,10.60
2018-10-04T00:21:58.780Z,10.50
2018-10-04T00:24:32.706Z,10.40
2018-10-04T00:27:02.492Z,10.40
2018-10-04T00:29:34.684Z,10.30
2018-10-04T00:32:04.374Z,10.30
2018-10-04T00:34:34.212Z,10.30
2018-10-04T00:37:03.328Z,10.40
2018-10-04T00:39:32.502Z,10.40
2018-10-04T00:42:01.746Z,10.30
2018-10-04T00:44:31.093Z,10.30
2018-10-04T00:47:00.807Z,10.30
2018-10-04T00:49:30.167Z,10.30
2018-10-04T00:52:00.118Z,10.30
2018-10-04T00:54:29.608Z,10.30
2018-10-04T00:56:58.889Z,10.30
2018-10-04T00:59:28.086Z,10.20
2018-10-04T01:01:57.789Z,10.20
2018-10-04T01:04:27.363Z,10.20
2018-10-04T01:06:56.526Z,10.20
2018-10-04T01:09:25.807Z,10.20
2018-10-04T01:11:55.314Z,10.10
2018-10-04T01:14:25.422Z,10.10
2018-10-04T01:17:00.415Z,10.10
2018-10-04T01:19:30.798Z,10.20
2018-10-04T01:22:00.327Z,10.10
2018-10-04T01:24:29.715Z,10.20
2018-10-04T01:26:59.003Z,10.20
2018-10-04T01:29:28.671Z,10.30
2018-10-04T01:31:57.937Z,10.30
2018-10-04T01:34:27.229Z,10.40
2018-10-04T01:36:57.199Z,10.40
2018-10-04T01:39:26.527Z,10.40
2018-10-04T01:41:55.786Z,10.50
2018-10-04T01:44:25.662Z,10.50
2018-10-04T01:46:54.835Z,10.50
2018-10-04T01:49:24.184Z,10.40
2018-10-04T01:51:53.334Z,10.30
2018-10-04T01:54:22.662Z,10.30
2018-10-04T01:56:51.758Z,10.20
2018-10-04T01:59:22.272Z,10.10
2018-10-04T02:01:51.398Z,10.10
2018-10-04T02:04:20.457Z,10.00
2018-10-04T02:06:55.428Z,10.00
2018-10-04T02:09:36.619Z,10.10
2018-10-04T02:12:13.447Z,10.20
2018-10-04T02:14:43.789Z,10.20
2018-10-04T02:17:13.098Z,10.30
2018-10-04T02:19:43.442Z,10.40
2018-10-04T02:22:12.739Z,10.40
2018-10-04T02:24:42.497Z,10.40
2018-10-04T02:27:11.766Z,10.40
2018-10-04T02:29:41.225Z,10.30
2018-10-04T02:32:10.430Z,10.20
2018-10-04T02:34:40.730Z,10.10
2018-10-04T02:37:10.061Z,10.20
2018-10-04T02:39:40.846Z,10.30
2018-10-04T02:42:10.046Z,10.30
2018-10-04T02:44:39.229Z,10.30
2018-10-04T02:47:09.581Z,10.30
2018-10-04T02:49:38.712Z,10.40
2018-10-04T02:52:08.671Z,10.30
2018-10-04T02:54:43.355Z,10.40
2018-10-04T02:57:12.612Z,10.40
2018-10-04T02:59:41.793Z,10.50
2018-10-04T03:02:10.967Z,10.50
2018-10-04T03:04:42.595Z,10.50
2018-10-04T03:07:11.737Z,10.50
2018-10-04T03:09:41.511Z,10.50
2018-10-04T03:12:10.804Z,10.50
2018-10-04T03:14:40.013Z,10.50
2018-10-04T03:17:09.432Z,10.50
2018-10-04T03:19:38.671Z,10.40
2018-10-04T03:22:08.356Z,10.40
2018-10-04T03:24:37.681Z,10.40
2018-10-04T03:27:08.271Z,10.30
2018-10-04T03:29:37.445Z,10.30
2018-10-04T03:32:06.554Z,10.20
2018-10-04T03:34:35.771Z,10.20
2018-10-04T03:37:05.064Z,10.20
2018-10-04T03:39:34.298Z,10.20
2018-10-04T03:42:03.561Z,10.20
2018-10-04T03:44:32.859Z,10.20
2018-10-04T03:47:02.052Z,10.20
2018-10-04T03:49:31.847Z,10.30
2018-10-04T03:52:00.983Z,10.30
2018-10-04T03:54:30.717Z,10.30
2018-10-04T03:57:00.220Z,10.30
2018-10-04T03:59:29.559Z,10.30
2018-10-04T04:02:00.164Z,10.30
2018-10-04T04:04:29.900Z,10.30
2018-10-04T04:06:58.983Z,10.20
2018-10-04T04:09:28.467Z,10.20
2018-10-04T04:11:59.241Z,10.30
2018-10-04T04:14:28.478Z,10.30
2018-10-04T04:16:57.730Z,10.30
2018-10-04T04:19:27.601Z,10.30
2018-10-04T04:24:32.544Z,10.30
2018-10-04T04:27:01.757Z,10.30
2018-10-04T04:29:32.080Z,10.30
2018-10-04T04:32:02.342Z,10.40
2018-10-04T04:34:32.195Z,10.40
2018-10-04T04:37:03.538Z,10.30
2018-10-04T04:39:32.723Z,10.30
2018-10-04T04:42:02.309Z,10.30
2018-10-04T04:44:31.431Z,10.40
2018-10-04T04:47:00.829Z,10.40
2018-10-04T04:49:30.089Z,10.30
2018-10-04T04:51:59.994Z,10.40
2018-10-04T04:55:37.224Z,10.40
2018-10-04T04:58:08.423Z,10.50
2018-10-04T05:00:38.785Z,10.50
2018-10-04T05:03:08.693Z,10.50
2018-10-04T05:05:37.909Z,10.40
2018-10-04T05:08:08.657Z,10.40
2018-10-04T05:10:38.660Z,10.40
2018-10-04T05:13:09.596Z,10.40
2018-10-04T05:15:39.660Z,10.40
2018-10-04T05:18:09.084Z,10.40
2018-10-04T05:20:38.683Z,10.50
2018-10-04T05:23:08.070Z,10.50
2018-10-04T05:25:37.511Z,10.60
2018-10-04T05:28:07.696Z,10.60
2018-10-04T05:30:36.902Z,10.70
2018-10-04T05:33:06.317Z,10.70
2018-10-04T05:35:36.456Z,10.50
2018-10-04T05:38:06.076Z,10.50
2018-10-04T05:40:36.383Z,10.40
2018-10-04T05:43:05.765Z,10.30
2018-10-04T05:45:35.213Z,10.30
2018-10-04T05:48:05.242Z,10.40
2018-10-04T05:50:34.773Z,10.40
2018-10-04T05:53:05.455Z,10.50
2018-10-04T05:55:35.144Z,10.50
2018-10-04T05:58:04.901Z,10.50
2018-10-04T06:00:36.641Z,10.50
2018-10-04T06:03:07.128Z,10.40
2018-10-04T06:05:36.761Z,10.40
2018-10-04T06:08:06.495Z,10.40
2018-10-04T06:10:36.244Z,10.40
2018-10-04T06:13:06.828Z,10.40
2018-10-04T06:15:37.202Z,10.30
2018-10-04T06:18:06.514Z,10.30
2018-10-04T06:20:39.439Z,10.40
2018-10-04T06:23:11.163Z,10.50
2018-10-04T06:25:41.075Z,10.50
2018-10-04T06:28:12.566Z,10.50
2018-10-04T06:30:49.144Z,10.50
2018-10-04T06:33:30.149Z,10.50
2018-10-04T06:35:59.680Z,10.50
2018-10-04T06:38:29.065Z,10.50
2018-10-04T06:40:59.906Z,10.40
2018-10-04T06:43:29.484Z,10.40
2018-10-04T06:45:58.704Z,10.50
2018-10-04T06:48:34.781Z,10.50
2018-10-04T06:51:06.167Z,10.60
2018-10-04T06:53:38.167Z,10.60
2018-10-04T06:56:09.938Z,10.70
2018-10-04T06:58:40.138Z,10.70
2018-10-04T07:01:11.612Z,10.70
2018-10-04T07:03:41.412Z,10.70
2018-10-04T07:06:12.783Z,10.80
2018-10-04T07:08:43.284Z,10.80
2018-10-04T07:11:22.866Z,10.80
2018-10-04T07:13:56.296Z,10.80
2018-10-04T07:16:26.769Z,10.80
2018-10-04T07:18:57.634Z,10.90
2018-10-04T07:21:27.726Z,10.90
2018-10-04T07:24:06.854Z,10.90
2018-10-04T07:26:40.788Z,10.90
2018-10-04T07:29:10.877Z,11.00
2018-10-04T07:31:40.827Z,11.00
2018-10-04T07:34:11.819Z,11.00
2018-10-04T07:36:42.964Z,11.00
2018-10-04T07:39:14.305Z,11.10
2018-10-04T07:41:45.312Z,11.10
2018-10-04T07:44:18.640Z,11.10
2018-10-04T07:46:49.331Z,11.10
2018-10-04T07:49:19.293Z,11.20
2018-10-04T07:51:49.288Z,11.20
2018-10-04T07:54:20.386Z,11.20
2018-10-04T07:56:51.746Z,11.30
2018-10-04T07:59:24.137Z,11.30
2018-10-04T08:01:59.656Z,11.30
2018-10-04T08:04:33.360Z,11.30
2018-10-04T08:07:03.745Z,11.30
2018-10-04T08:09:36.806Z,11.40
2018-10-04T08:12:07.818Z,11.30
2018-10-04T08:14:38.345Z,11.50
2018-10-04T08:17:08.645Z,11.60
2018-10-04T08:19:40.839Z,11.60
2018-10-04T08:22:16.982Z,11.70
2018-10-04T08:24:47.758Z,11.70
2018-10-04T08:27:22.906Z,11.70
2018-10-04T08:29:55.529Z,11.60
2018-10-04T08:32:25.701Z,11.70
2018-10-04T08:35:02.368Z,11.80
2018-10-04T08:37:41.273Z,11.70
2018-10-04T08:40:14.314Z,11.60
2018-10-04T08:42:44.315Z,11.70
2018-10-04T08:45:18.928Z,11.70
2018-10-04T08:47:54.299Z,11.70
2018-10-04T08:50:34.648Z,11.70
2018-10-04T08:53:27.762Z,11.70
2018-10-04T09:07:04.736Z,11.90
2018-10-04T09:14:07.428Z,12.10
2018-10-04T09:16:40.205Z,12.20
2018-10-04T09:19:18.815Z,12.30
2018-10-04T09:21:53.759Z,12.30
2018-10-04T09:24:28.338Z,12.40
2018-10-04T09:27:01.891Z,12.60
2018-10-04T09:29:34.764Z,12.60
2018-10-04T09:32:14.473Z,12.70
2018-10-04T09:34:46.203Z,12.90
2018-10-04T09:37:21.198Z,12.90
2018-10-04T09:39:53.671Z,13.00
2018-10-04T09:42:29.946Z,13.10
2018-10-04T09:45:03.151Z,13.20
2018-10-04T09:48:13.927Z,13.10
2018-10-04T09:57:47.864Z,13.40
2018-10-04T10:00:27.082Z,13.50
2018-10-04T10:03:08.277Z,13.70
2018-10-04T10:05:49.136Z,13.70
2018-10-04T10:08:32.323Z,13.70
2018-10-04T10:11:04.212Z,13.80
2018-10-04T10:13:35.906Z,13.90
2018-10-04T10:16:10.994Z,13.90
2018-10-04T10:22:08.064Z,14.00
2018-10-04T10:35:57.261Z,14.10
2018-10-04T10:38:39.622Z,14.10
2018-10-04T10:41:20.741Z,14.20
2018-10-04T10:48:08.892Z,14.30
2018-10-04T10:50:41.589Z,14.30
2018-10-04T10:53:18.935Z,14.20
2018-10-04T10:55:56.253Z,14.30
2018-10-04T10:58:30.396Z,14.50
2018-10-04T11:01:06.304Z,14.70
2018-10-04T11:03:40.024Z,14.80
2018-10-04T11:06:14.805Z,14.80
2018-10-04T11:08:56.028Z,14.90
2018-10-04T11:11:59.711Z,15.00
2018-10-04T11:14:32.483Z,15.20
2018-10-04T11:17:14.333Z,15.40
2018-10-04T11:20:19.469Z,15.50
2018-10-04T11:22:52.421Z,15.50
2018-10-04T11:25:24.469Z,15.50
2018-10-04T11:32:04.069Z,15.40
2018-10-04T11:38:09.839Z,15.80
2018-10-04T11:41:02.822Z,15.90
2018-10-04T11:44:05.033Z,16.00
2018-10-04T11:47:00.457Z,16.00
2018-10-04T11:52:18.715Z,16.00
2018-10-04T11:54:50.780Z,16.00
2018-10-04T11:57:38.112Z,16.00
2018-10-04T12:00:11.287Z,16.10
2018-10-04T12:02:43.731Z,16.10
2018-10-04T12:12:12.816Z,16.20
2018-10-04T12:14:47.318Z,16.70
2018-10-04T12:17:19.284Z,16.60
2018-10-04T12:19:50.873Z,16.60
2018-10-04T12:22:25.351Z,16.80
2018-10-04T12:24:57.053Z,16.90
2018-10-04T12:31:27.541Z,17.00
2018-10-04T12:34:10.315Z,17.40
2018-10-04T12:36:45.216Z,17.60
2018-10-04T12:39:16.537Z,17.80
2018-10-04T12:41:47.304Z,17.80
2018-10-04T12:44:18.612Z,18.00
2018-10-04T12:46:50.471Z,18.20
2018-10-04T12:49:26.268Z,18.20
2018-10-04T12:52:19.392Z,18.20
2018-10-04T12:57:42.281Z,18.50
2018-10-04T13:00:14.576Z,18.40
2018-10-04T13:02:55.144Z,18.30
2018-10-04T13:05:27.819Z,18.10
2018-10-04T13:08:03.338Z,18.20
2018-10-04T13:11:50.700Z,18.20
2018-10-04T13:21:23.600Z,18.30
2018-10-04T13:23:55.333Z,18.50
2018-10-04T13:26:29.208Z,18.70
2018-10-04T13:29:00.601Z,18.70
2018-10-04T13:31:33.239Z,18.90
2018-10-04T13:37:09.887Z,18.80
2018-10-04T13:39:58.226Z,18.70
2018-10-04T13:42:44.006Z,18.80
2018-10-04T13:53:25.657Z,19.80
2018-10-04T13:56:00.173Z,20.20
2018-10-04T13:58:41.322Z,20.50
2018-10-04T14:01:59.545Z,20.60
2018-10-04T14:04:38.533Z,21.60
2018-10-04T14:07:14.742Z,22.80
2018-10-04T14:09:55.121Z,23.40
2018-10-04T14:12:32.124Z,23.00
2018-10-04T14:15:08.881Z,21.40
2018-10-04T14:20:38.729Z,19.80
2018-10-04T14:29:47.741Z,18.20
2018-10-04T14:32:28.349Z,17.90
2018-10-04T14:35:24.749Z,17.70
2018-10-04T14:44:57.013Z,17.70
2018-10-04T14:47:37.985Z,17.80
2018-10-04T14:50:44.791Z,17.70
2018-10-04T14:57:15.529Z,17.30
2018-10-04T14:59:55.692Z,17.40
2018-10-04T15:02:36.342Z,17.60
2018-10-04T15:05:22.164Z,17.70
2018-10-04T15:07:53.037Z,17.70
2018-10-04T15:22:46.630Z,17.80
2018-10-04T15:25:44.731Z,17.70
2018-10-04T15:28:17.252Z,17.70
2018-10-04T15:30:51.323Z,17.50
2018-10-04T15:33:32.444Z,17.50
2018-10-04T15:39:52.657Z,17.40
2018-10-04T15:42:28.098Z,17.50
2018-10-04T15:49:00.559Z,17.40
2018-10-04T15:51:42.372Z,17.40
2018-10-04T15:54:26.642Z,17.40
2018-10-04T15:57:30.260Z,17.40
2018-10-04T16:00:44.562Z,17.30
2018-10-04T16:03:20.296Z,17.30
2018-10-04T16:05:58.495Z,17.20
2018-10-04T16:08:33.240Z,17.20
2018-10-04T16:21:55.960Z,16.90
2018-10-04T16:28:14.521Z,16.80
2018-10-04T16:30:50.957Z,16.70
2018-10-04T16:33:33.201Z,16.70
2018-10-04T16:36:19.185Z,16.70
2018-10-04T16:39:07.299Z,16.70
2018-10-04T16:45:46.452Z,16.80
2018-10-04T16:51:39.667Z,17.10
2018-10-04T16:54:14.187Z,17.20
2018-10-04T16:56:54.961Z,17.20
2018-10-04T16:59:26.312Z,17.30
2018-10-04T17:08:42.187Z,17.30
2018-10-04T17:28:06.362Z,17.30
2018-10-04T17:37:00.952Z,17.20
2018-10-04T17:39:40.165Z,17.30
2018-10-04T17:52:57.714Z,17.10
2018-10-04T17:55:44.992Z,17.00
2018-10-04T18:16:39.475Z,16.90
2018-10-04T18:28:34.739Z,16.80
2018-10-04T18:31:08.411Z,16.70
2018-10-04T18:34:05.299Z,16.60
2018-10-04T18:36:49.978Z,16.60
2018-10-04T18:39:31.729Z,16.50
2018-10-04T18:42:18.100Z,16.50
2018-10-04T18:44:55.570Z,16.40
2018-10-04T18:47:35.842Z,16.30
2018-10-04T18:50:17.494Z,16.30
2018-10-04T18:53:02.716Z,16.20
2018-10-04T18:55:42.485Z,16.20
2018-10-04T18:58:18.802Z,16.20
2018-10-04T19:00:57.074Z,16.10
2018-10-04T19:03:27.679Z,16.10
2018-10-04T19:05:58.374Z,16.10
2018-10-04T19:08:29.316Z,16.10
2018-10-04T19:11:05.999Z,15.90
2018-10-04T19:13:39.099Z,15.90
2018-10-04T19:18:47.443Z,15.70
2018-10-04T19:21:27.521Z,15.50
2018-10-04T19:24:00.284Z,15.50
2018-10-04T19:26:38.741Z,15.40
2018-10-04T19:29:17.150Z,15.30
2018-10-04T19:31:48.373Z,15.30
2018-10-04T19:34:20.290Z,15.30
2018-10-04T19:40:09.075Z,15.10
2018-10-04T19:42:42.094Z,15.10
2018-10-04T19:45:57.692Z,15.10
2018-10-04T19:48:40.130Z,15.10
2018-10-04T19:51:21.012Z,15.00
2018-10-04T19:53:54.993Z,15.00
2018-10-04T19:56:29.538Z,15.00
2018-10-04T19:59:07.185Z,14.90
2018-10-04T20:01:45.997Z,14.90
2018-10-04T20:04:27.936Z,14.90
2018-10-04T20:07:04.597Z,14.80
2018-10-04T20:09:36.396Z,14.80
2018-10-04T20:12:07.904Z,14.80
2018-10-04T20:14:37.711Z,14.80
2018-10-04T20:17:13.589Z,14.70
2018-10-04T20:19:46.466Z,14.70
2018-10-04T20:22:21.530Z,14.50
2018-10-04T20:24:53.117Z,14.50
2018-10-04T20:27:37.315Z,14.40
2018-10-04T20:30:19.300Z,14.40
2018-10-04T20:33:09.748Z,14.30
2018-10-04T20:35:41.053Z,14.20
2018-10-04T20:38:15.823Z,14.20
2018-10-04T20:40:45.433Z,14.20
2018-10-04T20:46:14.091Z,14.20
2018-10-04T20:48:56.664Z,14.20
2018-10-04T20:51:39.611Z,14.20
2018-10-04T20:54:22.552Z,14.20
2018-10-04T20:56:55.418Z,14.10
2018-10-04T20:59:31.514Z,14.10
2018-10-04T21:02:02.509Z,14.10
2018-10-04T21:04:33.360Z,14.00
2018-10-04T21:07:07.254Z,13.90
2018-10-04T21:09:43.094Z,13.80
2018-10-04T21:12:16.700Z,13.60
2018-10-04T21:14:47.256Z,13.60
2018-10-04T21:17:20.493Z,13.60
2018-10-04T21:19:50.280Z,13.60
2018-10-04T21:22:21.254Z,13.60
2018-10-04T21:24:52.847Z,13.70
2018-10-04T21:27:30.767Z,13.60
2018-10-04T21:30:03.191Z,13.50
2018-10-04T21:37:56.705Z,13.60
2018-10-04T21:40:35.728Z,13.50
2018-10-04T21:43:28.016Z,13.30
2018-10-04T21:45:59.296Z,13.20
2018-10-04T21:48:33.593Z,13.10
2018-10-04T21:53:56.451Z,13.00
2018-10-04T21:56:27.827Z,13.00
2018-10-04T21:58:59.878Z,12.80
2018-10-04T22:01:37.448Z,12.70
2018-10-04T22:04:09.719Z,12.70
2018-10-04T22:06:42.659Z,12.70
2018-10-04T22:09:22.355Z,12.60
2018-10-04T22:11:55.827Z,12.60
2018-10-04T22:14:29.622Z,12.50
2018-10-04T22:17:12.643Z,12.50
2018-10-04T22:19:45.213Z,12.50
2018-10-04T22:22:19.882Z,12.40
2018-10-04T22:25:04.535Z,12.40
2018-10-04T22:27:35.206Z,12.40
2018-10-04T22:30:06.720Z,12.30
2018-10-04T22:32:48.550Z,12.30
2018-10-04T22:35:27.776Z,12.20
2018-10-04T22:38:06.209Z,12.20
2018-10-04T22:40:40.441Z,12.10
2018-10-04T22:43:12.545Z,12.10
2018-10-04T22:45:43.182Z,12.10
2018-10-04T22:48:14.493Z,12.00
2018-10-04T22:50:46.807Z,12.00
2018-10-04T22:53:18.229Z,11.90
2018-10-04T22:55:49.385Z,11.90
2018-10-04T22:58:20.122Z,11.90
2018-10-04T23:00:49.643Z,11.90
2018-10-04T23:03:23.099Z,11.80
2018-10-04T23:05:54.637Z,11.80
2018-10-04T23:08:23.936Z,11.80
2018-10-04T23:10:53.431Z,11.80
2018-10-04T23:13:24.995Z,11.80
2018-10-04T23:15:54.347Z,11.80
2018-10-04T23:18:23.945Z,11.80
2018-10-04T23:20:55.298Z,11.80
2018-10-04T23:23:25.656Z,11.80
2018-10-04T23:26:06.096Z,11.70
2018-10-04T23:28:40.826Z,11.70
2018-10-04T23:31:14.300Z,11.70
2018-10-04T23:33:44.768Z,11.60
2018-10-04T23:36:16.157Z,11.60
2018-10-04T23:38:45.724Z,11.60
2018-10-04T23:41:15.884Z,11.60
2018-10-04T23:43:45.651Z,11.60
2018-10-04T23:46:15.683Z,11.60
2018-10-04T23:48:45.731Z,11.50
2018-10-04T23:51:17.252Z,11.40
2018-10-04T23:53:46.333Z,11.40
2018-10-04T23:56:15.472Z,11.40
2018-10-04T23:58:46.510Z,11.30
